Time;durP1;ratioP1;P1;durP2;ratioP2;P2;SDS_P1;SDS_P2;PMS_P1;PMS_P2;Temp;Humidity;BMP_temperature;BMP_pressure;BME280_temperature;BME280_humidity;BME280_pressure;Samples;Min_cycle;Max_cycle;Signal;HPM_P1;HPM_P2
2022/09/15 00:01:31;;;;;;;2.33;1.30;;;;;;;;;;5023676;28;20037;-85
2022/09/15 00:03:57;;;;;;;2.83;1.20;;;;;;;;;;5022293;28;20097;-84
2022/09/15 00:06:22;;;;;;;3.92;1.10;;;;;;;;;;5022724;28;20033;-85
2022/09/15 00:08:48;;;;;;;4.30;1.23;;;;;;;;;;5024362;28;20057;-84
2022/09/15 00:11:21;;;;;;;3.83;1.30;;;;;;;;;;5023704;28;20030;-84
2022/09/15 00:13:47;;;;;;;2.92;1.30;;;;;;;;;;5024747;28;20152;-85
2022/09/15 00:16:13;;;;;;;2.40;1.13;;;;;;;;;;5022933;28;20025;-85
2022/09/15 00:18:39;;;;;;;3.53;1.30;;;;;;;;;;5023845;28;20049;-85
2022/09/15 00:21:07;;;;;;;2.92;1.40;;;;;;;;;;5024615;28;20076;-84
2022/09/15 00:23:32;;;;;;;4.95;1.55;;;;;;;;;;5023969;28;20044;-85
2022/09/15 00:25:58;;;;;;;2.15;1.30;;;;;;;;;;5024030;28;20101;-85
2022/09/15 00:28:24;;;;;;;2.10;1.30;;;;;;;;;;5024715;28;20033;-84
2022/09/15 00:30:51;;;;;;;2.17;1.27;;;;;;;;;;5024397;28;20192;-85
2022/09/15 00:33:18;;;;;;;2.63;1.10;;;;;;;;;;5024392;28;20033;-85
2022/09/15 00:35:45;;;;;;;4.40;1.50;;;;;;;;;;5023250;28;20061;-85
2022/09/15 00:38:13;;;;;;;4.28;1.30;;;;;;;;;;5023749;28;20065;-84
2022/09/15 00:40:44;;;;;;;1.95;1.13;;;;;;;;;;5024438;28;20049;-84
2022/09/15 00:43:13;;;;;;;2.78;1.50;;;;;;;;;;5023519;28;20030;-85
2022/09/15 00:45:39;;;;;;;4.60;1.40;;;;;;;;;;5023801;28;20110;-84
2022/09/15 00:48:09;;;;;;;5.32;1.80;;;;;;;;;;5024477;28;20744;-85
2022/09/15 00:50:37;;;;;;;3.08;1.40;;;;;;;;;;5022622;28;20041;-84
2022/09/15 00:53:07;;;;;;;5.20;1.30;;;;;;;;;;5023779;28;20038;-84
2022/09/15 00:55:46;;;;;;;4.47;1.40;;;;;;;;;;5023475;28;20038;-85
2022/09/15 00:58:19;;;;;;;5.35;1.30;;;;;;;;;;5024022;28;20034;-85
2022/09/15 01:00:50;;;;;;;4.00;1.67;;;;;;;;;;5022943;28;20041;-85
2022/09/15 01:03:16;;;;;;;2.85;1.30;;;;;;;;;;5023492;28;20056;-85
2022/09/15 01:05:52;;;;;;;2.20;1.20;;;;;;;;;;5023107;28;20033;-85
2022/09/15 01:08:30;;;;;;;3.15;1.30;;;;;;;;;;5024171;28;20030;-85
2022/09/15 01:10:56;;;;;;;3.03;1.27;;;;;;;;;;5024068;28;20408;-85
2022/09/15 01:13:22;;;;;;;5.80;1.75;;;;;;;;;;5023804;28;20057;-84
2022/09/15 01:16:09;;;;;;;2.83;1.20;;;;;;;;;;5022417;28;20089;-84
2022/09/15 01:18:55;;;;;;;4.43;1.30;;;;;;;;;;5023054;28;20034;-84
2022/09/15 01:21:45;;;;;;;4.10;1.20;;;;;;;;;;5024303;28;20421;-85
2022/09/15 01:24:48;;;;;;;3.28;1.20;;;;;;;;;;5023059;28;20034;-85
2022/09/15 01:27:32;;;;;;;2.30;1.15;;;;;;;;;;5023774;28;20026;-85
2022/09/15 01:30:05;;;;;;;;;;;;;;;;;;5009943;28;20042;-85
2022/09/15 01:35:25;;;;;;;2.05;1.10;;;;;;;;;;5026932;28;20046;-85
2022/09/15 01:38:33;;;;;;;2.97;1.65;;;;;;;;;;5027307;28;20064;-84
2022/09/15 01:41:24;;;;;;;1.75;1.05;;;;;;;;;;5016997;28;20045;-85
2022/09/15 01:44:23;;;;;;;2.13;1.23;;;;;;;;;;5026988;28;20097;-84
2022/09/15 01:47:04;;;;;;;3.20;1.20;;;;;;;;;;5022646;28;20073;-85
2022/09/15 01:49:35;;;;;;;1.70;1.05;;;;;;;;;;5025909;28;20040;-85
2022/09/15 01:52:01;;;;;;;4.97;1.13;;;;;;;;;;5025595;28;20038;-85
2022/09/15 01:54:34;;;;;;;2.38;1.30;;;;;;;;;;5026695;28;20068;-85
2022/09/15 01:57:01;;;;;;;2.72;1.30;;;;;;;;;;5027654;28;20104;-85
2022/09/15 01:59:27;;;;;;;2.50;1.13;;;;;;;;;;5025934;28;20025;-85
2022/09/15 02:01:58;;;;;;;3.55;1.02;;;;;;;;;;5025784;28;20038;-85
2022/09/15 02:04:37;;;;;;;2.75;1.25;;;;;;;;;;5026158;28;20417;-85
2022/09/15 02:07:22;;;;;;;2.53;1.20;;;;;;;;;;5026539;28;20041;-84
2022/09/15 02:10:01;;;;;;;2.10;1.13;;;;;;;;;;5009134;28;20038;-85
2022/09/15 02:12:36;;;;;;;1.48;1.17;;;;;;;;;;5007422;28;20066;-86
2022/09/15 02:15:08;;;;;;;2.00;1.10;;;;;;;;;;5025644;28;20073;-84
2022/09/15 02:17:41;;;;;;;1.50;0.95;;;;;;;;;;5025254;28;20181;-84
2022/09/15 02:20:14;;;;;;;3.30;1.17;;;;;;;;;;5027032;28;20037;-84
2022/09/15 02:22:44;;;;;;;2.15;1.00;;;;;;;;;;5025298;28;20283;-85
2022/09/15 02:25:15;;;;;;;2.85;1.10;;;;;;;;;;5026321;28;20026;-85
2022/09/15 02:27:48;;;;;;;1.77;1.17;;;;;;;;;;5025972;28;20160;-85
2022/09/15 02:30:15;;;;;;;;;;;;;;;;;;5027134;28;20045;-85
2022/09/15 02:32:47;;;;;;;2.00;1.10;;;;;;;;;;5026359;28;19940;-84
2022/09/15 02:35:15;;;;;;;3.65;1.25;;;;;;;;;;5026008;28;20038;-85
2022/09/15 02:37:40;;;;;;;3.40;1.30;;;;;;;;;;5025439;28;20040;-84
2022/09/15 02:40:07;;;;;;;3.63;1.48;;;;;;;;;;5023948;28;20495;-84
2022/09/15 02:42:33;;;;;;;3.22;1.20;;;;;;;;;;5023754;28;20041;-84
2022/09/15 02:45:00;;;;;;;3.00;1.40;;;;;;;;;;5024829;28;20030;-85
2022/09/15 02:47:29;;;;;;;2.13;1.30;;;;;;;;;;5025013;28;20442;-85
2022/09/15 02:49:55;;;;;;;2.83;1.30;;;;;;;;;;5024051;28;20062;-84
2022/09/15 02:52:21;;;;;;;2.22;1.30;;;;;;;;;;5023986;28;20065;-84
2022/09/15 02:54:47;;;;;;;2.85;1.38;;;;;;;;;;5025210;28;20042;-85
2022/09/15 02:57:13;;;;;;;1.65;1.10;;;;;;;;;;5025838;28;20080;-85
2022/09/15 03:02:23;;;;;;;2.75;1.10;;;;;;;;;;5024979;28;20037;-84
2022/09/15 03:04:49;;;;;;;2.72;1.23;;;;;;;;;;5024894;28;20034;-84
2022/09/15 03:07:16;;;;;;;1.90;1.25;;;;;;;;;;5023638;28;20132;-85
2022/09/15 03:09:42;;;;;;;3.80;1.20;;;;;;;;;;5024467;28;20441;-83
2022/09/15 03:12:08;;;;;;;2.00;1.20;;;;;;;;;;5023397;28;20114;-84
2022/09/15 03:14:34;;;;;;;2.83;1.25;;;;;;;;;;5023318;28;20030;-84
2022/09/15 03:17:00;;;;;;;2.70;1.30;;;;;;;;;;5025517;28;20046;-84
2022/09/15 03:19:25;;;;;;;2.03;1.20;;;;;;;;;;5024990;28;20034;-85
2022/09/15 03:21:51;;;;;;;4.25;1.10;;;;;;;;;;5024100;28;20060;-84
2022/09/15 03:24:21;;;;;;;2.15;1.30;;;;;;;;;;5023598;28;20210;-84
2022/09/15 03:26:48;;;;;;;2.72;1.33;;;;;;;;;;5023347;28;20077;-84
2022/09/15 03:29:14;;;;;;;1.88;1.30;;;;;;;;;;5023477;28;20036;-85
2022/09/15 03:31:39;;;;;;;4.43;1.40;;;;;;;;;;5024706;28;20034;-84
2022/09/15 03:34:05;;;;;;;2.15;1.23;;;;;;;;;;5021922;28;20096;-83
2022/09/15 03:36:30;;;;;;;3.83;1.30;;;;;;;;;;5023474;28;20069;-84
2022/09/15 03:38:57;;;;;;;5.70;1.38;;;;;;;;;;5023615;28;20042;-85
2022/09/15 03:41:22;;;;;;;1.63;1.20;;;;;;;;;;5024449;28;20403;-85
2022/09/15 03:43:48;;;;;;;2.00;1.30;;;;;;;;;;5023642;28;20041;-84
2022/09/15 03:46:14;;;;;;;3.20;1.23;;;;;;;;;;5023400;28;20040;-84
2022/09/15 03:48:39;;;;;;;2.25;1.20;;;;;;;;;;5023410;28;20056;-85
2022/09/15 03:51:06;;;;;;;3.33;1.20;;;;;;;;;;5024836;28;20037;-84
2022/09/15 03:53:36;;;;;;;1.73;1.30;;;;;;;;;;5022078;28;20038;-84
2022/09/15 03:56:23;;;;;;;1.40;1.00;;;;;;;;;;5023042;28;20041;-84
2022/09/15 03:58:50;;;;;;;2.85;1.30;;;;;;;;;;5023828;28;20057;-85
2022/09/15 04:01:17;;;;;;;2.17;1.30;;;;;;;;;;5023042;28;20030;-84
2022/09/15 04:03:43;;;;;;;1.40;1.08;;;;;;;;;;5023095;28;20022;-84
2022/09/15 04:06:09;;;;;;;2.88;1.30;;;;;;;;;;5022437;28;20048;-83
2022/09/15 04:08:35;;;;;;;2.25;1.10;;;;;;;;;;5022398;28;20054;-84
2022/09/15 04:11:09;;;;;;;2.72;1.25;;;;;;;;;;5022309;28;20029;-84
2022/09/15 04:13:37;;;;;;;3.08;1.20;;;;;;;;;;5023783;28;20088;-84
2022/09/15 04:16:05;;;;;;;4.22;1.20;;;;;;;;;;5023091;28;20037;-83
2022/09/15 04:18:32;;;;;;;2.05;1.23;;;;;;;;;;5021450;28;20065;-84
2022/09/15 04:21:02;;;;;;;2.25;1.05;;;;;;;;;;5024834;28;20048;-84
2022/09/15 04:23:28;;;;;;;2.55;1.30;;;;;;;;;;5023965;28;20041;-84
2022/09/15 04:25:55;;;;;;;2.30;1.20;;;;;;;;;;5005671;28;20048;-84
2022/09/15 04:28:22;;;;;;;2.05;1.30;;;;;;;;;;5021999;28;20033;-84
2022/09/15 04:30:47;;;;;;;4.50;1.30;;;;;;;;;;5023136;28;20061;-85
2022/09/15 04:33:13;;;;;;;2.00;1.13;;;;;;;;;;5022484;28;20060;-84
2022/09/15 04:35:38;;;;;;;2.80;1.20;;;;;;;;;;5021773;28;20101;-84
2022/09/15 04:38:04;;;;;;;4.95;1.30;;;;;;;;;;5022456;28;20038;-84
2022/09/15 04:40:29;;;;;;;1.63;1.20;;;;;;;;;;5023175;28;20045;-84
2022/09/15 04:42:55;;;;;;;2.00;1.20;;;;;;;;;;5022211;28;20038;-85
2022/09/15 04:45:20;;;;;;;3.05;1.10;;;;;;;;;;5020958;28;20030;-84
2022/09/15 04:47:47;;;;;;;2.45;1.27;;;;;;;;;;5021457;28;20404;-84
2022/09/15 04:50:13;;;;;;;2.05;1.00;;;;;;;;;;5024083;28;20144;-84
2022/09/15 04:52:38;;;;;;;2.22;1.00;;;;;;;;;;5021620;28;20067;-84
2022/09/15 04:55:04;;;;;;;4.13;1.10;;;;;;;;;;5022577;28;20471;-85
2022/09/15 04:57:29;;;;;;;2.83;1.20;;;;;;;;;;5021923;28;20041;-84
2022/09/15 04:59:55;;;;;;;1.25;1.08;;;;;;;;;;5021330;28;20034;-85
2022/09/15 05:02:20;;;;;;;3.95;1.10;;;;;;;;;;5021607;28;20029;-85
2022/09/15 05:04:48;;;;;;;2.65;1.00;;;;;;;;;;5022856;28;20132;-85
2022/09/15 05:07:13;;;;;;;1.52;1.20;;;;;;;;;;5023786;28;20033;-85
2022/09/15 05:09:41;;;;;;;3.72;1.20;;;;;;;;;;5026057;28;20479;-84
2022/09/15 05:12:07;;;;;;;3.75;1.38;;;;;;;;;;5023631;28;20087;-84
2022/09/15 05:14:32;;;;;;;3.72;1.27;;;;;;;;;;5024993;28;20120;-84
2022/09/15 05:16:58;;;;;;;3.22;1.30;;;;;;;;;;5026694;28;20049;-85
2022/09/15 05:19:23;;;;;;;3.55;1.40;;;;;;;;;;5025581;28;20042;-84
2022/09/15 05:21:49;;;;;;;3.75;1.40;;;;;;;;;;5027083;28;20025;-84
2022/09/15 05:24:14;;;;;;;1.75;1.30;;;;;;;;;;5025055;28;20048;-84
2022/09/15 05:26:40;;;;;;;3.20;1.55;;;;;;;;;;5026530;28;20164;-85
2022/09/15 05:29:06;;;;;;;1.52;1.13;;;;;;;;;;5026684;28;20068;-84
2022/09/15 05:31:32;;;;;;;5.60;2.08;;;;;;;;;;5026785;28;20065;-83
2022/09/15 05:34:04;;;;;;;3.97;1.90;;;;;;;;;;5024598;28;20064;-82
2022/09/15 05:36:30;;;;;;;3.40;1.80;;;;;;;;;;5026220;28;20042;-84
2022/09/15 05:38:57;;;;;;;5.03;1.88;;;;;;;;;;5026533;28;20041;-84
2022/09/15 05:41:23;;;;;;;2.75;1.40;;;;;;;;;;5024876;28;20034;-84
2022/09/15 05:43:49;;;;;;;3.47;1.60;;;;;;;;;;5026312;28;20820;-83
2022/09/15 05:46:17;;;;;;;4.28;1.40;;;;;;;;;;5025704;28;20505;-83
2022/09/15 05:48:43;;;;;;;2.92;1.20;;;;;;;;;;5026056;28;20065;-84
2022/09/15 05:51:09;;;;;;;2.28;1.20;;;;;;;;;;5025646;28;20030;-84
2022/09/15 05:53:35;;;;;;;2.28;1.30;;;;;;;;;;5024365;28;20045;-83
2022/09/15 05:56:04;;;;;;;3.03;1.40;;;;;;;;;;5016876;28;20038;-83
2022/09/15 05:58:29;;;;;;;3.40;1.50;;;;;;;;;;5022172;28;20061;-84
2022/09/15 06:00:56;;;;;;;2.85;1.65;;;;;;;;;;5024054;28;20038;-84
2022/09/15 06:03:22;;;;;;;2.38;1.15;;;;;;;;;;5023821;28;20030;-83
2022/09/15 06:05:48;;;;;;;1.92;1.30;;;;;;;;;;5025650;28;20034;-84
2022/09/15 06:08:15;;;;;;;2.47;1.50;;;;;;;;;;5013797;28;20034;-81
2022/09/15 06:10:40;;;;;;;2.03;1.40;;;;;;;;;;5003798;28;20073;-83
2022/09/15 06:13:06;;;;;;;3.75;1.70;;;;;;;;;;5007248;28;20026;-84
2022/09/15 06:15:31;;;;;;;2.92;1.70;;;;;;;;;;5007445;28;20034;-83
2022/09/15 06:17:57;;;;;;;3.85;1.50;;;;;;;;;;5009443;28;20038;-83
2022/09/15 06:20:23;;;;;;;4.90;1.50;;;;;;;;;;5008961;28;20125;-82
2022/09/15 06:22:49;;;;;;;2.28;1.63;;;;;;;;;;5007622;28;20046;-84
2022/09/15 06:25:14;;;;;;;2.88;1.80;;;;;;;;;;5007170;28;20092;-84
2022/09/15 06:27:40;;;;;;;3.63;1.30;;;;;;;;;;5009140;28;20039;-84
2022/09/15 06:30:08;;;;;;;2.22;1.60;;;;;;;;;;5008081;28;20042;-83
2022/09/15 06:32:35;;;;;;;2.58;1.55;;;;;;;;;;5005021;28;20069;-83
2022/09/15 06:35:02;;;;;;;3.40;1.60;;;;;;;;;;5004897;28;20471;-83
2022/09/15 06:37:28;;;;;;;2.92;1.40;;;;;;;;;;5006915;28;20038;-82
2022/09/15 06:39:53;;;;;;;2.83;1.45;;;;;;;;;;5008149;28;20049;-84
2022/09/15 06:42:19;;;;;;;2.40;1.40;;;;;;;;;;4988497;28;20045;-84
2022/09/15 06:44:46;;;;;;;2.10;1.55;;;;;;;;;;5003863;28;20082;-81
2022/09/15 06:47:14;;;;;;;5.28;1.45;;;;;;;;;;5006679;28;20058;-83
2022/09/15 06:49:39;;;;;;;4.72;1.50;;;;;;;;;;5004355;28;20053;-84
2022/09/15 06:52:05;;;;;;;4.00;1.48;;;;;;;;;;5003930;28;20046;-83
2022/09/15 06:54:31;;;;;;;1.65;1.20;;;;;;;;;;5000911;28;20034;-85
2022/09/15 06:56:56;;;;;;;2.95;1.35;;;;;;;;;;5001252;28;20442;-85
2022/09/15 06:59:23;;;;;;;2.20;1.23;;;;;;;;;;5001191;28;20046;-85
2022/09/15 07:01:52;;;;;;;1.58;1.30;;;;;;;;;;5000951;28;20034;-85
2022/09/15 07:04:18;;;;;;;1.80;1.27;;;;;;;;;;5003477;28;20050;-84
2022/09/15 07:06:44;;;;;;;2.00;1.10;;;;;;;;;;5004766;28;20113;-86
2022/09/15 07:09:10;;;;;;;2.20;1.20;;;;;;;;;;5001688;28;20035;-84
2022/09/15 07:11:36;;;;;;;3.08;1.02;;;;;;;;;;5001178;28;20045;-85
2022/09/15 07:14:01;;;;;;;1.55;1.05;;;;;;;;;;5000913;28;20043;-85
2022/09/15 07:16:27;;;;;;;5.05;1.40;;;;;;;;;;4999320;28;20038;-83
2022/09/15 07:18:55;;;;;;;1.52;1.15;;;;;;;;;;4997488;28;20064;-83
2022/09/15 07:21:21;;;;;;;1.58;1.13;;;;;;;;;;5002814;28;20545;-83
2022/09/15 07:23:48;;;;;;;4.05;1.30;;;;;;;;;;5000953;28;20391;-85
2022/09/15 07:26:16;;;;;;;3.42;1.30;;;;;;;;;;4998334;28;20085;-85
2022/09/15 07:28:45;;;;;;;2.88;1.30;;;;;;;;;;5000239;28;20065;-84
2022/09/15 07:31:14;;;;;;;2.63;1.30;;;;;;;;;;5002901;28;20034;-84
2022/09/15 07:33:39;;;;;;;2.85;1.27;;;;;;;;;;5003739;28;20034;-85
2022/09/15 07:36:06;;;;;;;5.60;1.23;;;;;;;;;;5002233;28;20122;-83
2022/09/15 07:38:33;;;;;;;3.53;1.13;;;;;;;;;;5000668;28;20057;-83
2022/09/15 07:41:06;;;;;;;1.50;1.10;;;;;;;;;;4997979;28;20034;-81
2022/09/15 07:43:31;;;;;;;;;;;;;;;;;;4999795;28;20395;-84
2022/09/15 07:45:58;;;;;;;2.85;1.50;;;;;;;;;;5001453;28;19909;-83
2022/09/15 07:48:24;;;;;;;3.45;1.48;;;;;;;;;;5002173;28;20034;-85
2022/09/15 07:50:49;;;;;;;5.25;1.30;;;;;;;;;;5001403;28;20053;-84
2022/09/15 07:53:15;;;;;;;1.95;1.20;;;;;;;;;;5000529;28;20038;-84
2022/09/15 07:55:41;;;;;;;2.92;1.20;;;;;;;;;;5001733;28;20126;-85
2022/09/15 07:58:06;;;;;;;3.42;1.20;;;;;;;;;;4982479;28;20430;-85
2022/09/15 08:00:32;;;;;;;3.15;1.20;;;;;;;;;;5004240;28;20072;-86
2022/09/15 08:02:57;;;;;;;2.13;1.20;;;;;;;;;;5000867;28;20403;-85
2022/09/15 08:05:27;;;;;;;1.85;1.10;;;;;;;;;;4999118;28;20092;-84
2022/09/15 08:07:56;;;;;;;3.13;1.30;;;;;;;;;;4997982;28;20048;-84
2022/09/15 08:10:25;;;;;;;3.08;1.10;;;;;;;;;;4997480;28;20030;-83
2022/09/15 08:12:53;;;;;;;2.08;1.10;;;;;;;;;;5001312;28;20575;-84
2022/09/15 08:15:19;;;;;;;3.03;1.20;;;;;;;;;;5019835;28;20038;-83
2022/09/15 08:17:45;;;;;;;3.90;2.33;;;;;;;;;;5021447;28;20033;-84
2022/09/15 08:20:11;;;;;;;2.30;1.40;;;;;;;;;;5036880;28;20083;-85
2022/09/15 08:22:38;;;;;;;2.97;1.23;;;;;;;;;;5020580;28;20025;-84
2022/09/15 08:25:05;;;;;;;4.75;1.30;;;;;;;;;;5020744;28;20040;-85
2022/09/15 08:27:31;;;;;;;2.35;1.15;;;;;;;;;;5021721;28;20034;-85
2022/09/15 08:29:56;;;;;;;1.83;1.15;;;;;;;;;;5021007;28;20550;-84
2022/09/15 08:32:22;;;;;;;2.20;1.60;;;;;;;;;;5022878;28;20065;-84
2022/09/15 08:34:47;;;;;;;3.10;1.30;;;;;;;;;;5035891;28;20049;-85
2022/09/15 08:37:13;;;;;;;3.03;1.50;;;;;;;;;;5021367;28;20042;-86
2022/09/15 08:39:38;;;;;;;3.22;1.63;;;;;;;;;;5020904;28;20034;-84
2022/09/15 08:42:05;;;;;;;2.88;1.70;;;;;;;;;;5019872;28;20034;-84
2022/09/15 08:44:43;;;;;;;1.60;1.20;;;;;;;;;;5037179;28;20034;-84
2022/09/15 08:47:13;;;;;;;3.28;2.08;;;;;;;;;;5023132;28;20034;-84
2022/09/15 08:50:06;;;;;;;2.38;1.20;;;;;;;;;;5022828;28;20159;-84
2022/09/15 08:52:38;;;;;;;2.10;1.10;;;;;;;;;;5038237;28;20128;-85
2022/09/15 08:55:12;;;;;;;1.85;1.10;;;;;;;;;;5020953;28;20653;-84
2022/09/15 08:57:37;;;;;;;2.15;1.63;;;;;;;;;;5022068;28;20092;-83
2022/09/15 09:00:03;;;;;;;1.95;1.17;;;;;;;;;;5020875;28;20030;-83
2022/09/15 09:02:52;;;;;;;1.65;1.20;;;;;;;;;;5019131;28;20463;-82
2022/09/15 09:05:44;;;;;;;2.83;1.30;;;;;;;;;;5017307;28;20092;-83
2022/09/15 09:08:35;;;;;;;2.28;0.95;;;;;;;;;;5019232;28;20124;-84
2022/09/15 09:11:22;;;;;;;5.85;1.10;;;;;;;;;;5032092;28;20033;-84
2022/09/15 09:14:04;;;;;;;2.15;1.20;;;;;;;;;;5019224;28;20097;-85
2022/09/15 09:16:57;;;;;;;5.82;1.75;;;;;;;;;;5023484;28;20042;-86
2022/09/15 09:19:41;;;;;;;2.15;1.20;;;;;;;;;;5026481;28;20095;-86
2022/09/15 09:22:12;;;;;;;1.80;1.10;;;;;;;;;;5024841;28;20064;-86
2022/09/15 09:24:47;;;;;;;2.90;1.15;;;;;;;;;;5026467;28;20037;-86
2022/09/15 09:27:17;;;;;;;3.33;1.20;;;;;;;;;;5024522;28;20038;-85
2022/09/15 09:29:50;;;;;;;1.10;1.00;;;;;;;;;;5024861;28;20038;-86
2022/09/15 09:32:25;;;;;;;3.70;1.40;;;;;;;;;;5022573;28;20038;-85
2022/09/15 09:34:56;;;;;;;1.83;1.40;;;;;;;;;;5019493;28;20109;-85
2022/09/15 09:37:23;;;;;;;2.70;1.33;;;;;;;;;;5018362;28;20038;-87
2022/09/15 09:39:49;;;;;;;1.77;1.13;;;;;;;;;;5024521;28;20430;-87
2022/09/15 09:42:17;;;;;;;1.88;1.02;;;;;;;;;;5023423;28;20121;-86
2022/09/15 09:44:43;;;;;;;2.60;1.00;;;;;;;;;;5024067;28;20116;-85
2022/09/15 09:47:11;;;;;;;1.73;1.20;;;;;;;;;;5023213;28;20512;-86
2022/09/15 09:49:46;;;;;;;2.47;1.10;;;;;;;;;;5039450;28;20037;-87
2022/09/15 09:52:12;;;;;;;2.80;1.10;;;;;;;;;;5024721;28;20041;-86
2022/09/15 09:54:38;;;;;;;3.28;1.13;;;;;;;;;;5025187;28;20042;-87
2022/09/15 09:57:12;;;;;;;1.60;1.05;;;;;;;;;;5025721;28;20041;-86
2022/09/15 09:59:42;;;;;;;1.05;0.90;;;;;;;;;;5024731;28;20038;-86
2022/09/15 10:02:10;;;;;;;1.23;1.00;;;;;;;;;;5026110;28;20037;-87
2022/09/15 10:04:37;;;;;;;2.85;1.10;;;;;;;;;;5024256;28;20450;-86
2022/09/15 10:07:03;;;;;;;2.17;1.10;;;;;;;;;;5024768;28;20061;-88
2022/09/15 10:09:29;;;;;;;2.58;1.20;;;;;;;;;;5024606;28;20038;-86
2022/09/15 10:11:58;;;;;;;2.88;1.15;;;;;;;;;;5040191;28;20082;-86
2022/09/15 10:14:24;;;;;;;1.75;1.27;;;;;;;;;;5023314;28;20057;-85
2022/09/15 10:17:04;;;;;;;1.67;1.20;;;;;;;;;;5041009;28;20041;-86
2022/09/15 10:19:35;;;;;;;1.63;1.20;;;;;;;;;;5042380;28;20530;-85
2022/09/15 10:22:02;;;;;;;1.98;1.10;;;;;;;;;;5025930;28;20038;-87
2022/09/15 10:24:40;;;;;;;4.63;1.13;;;;;;;;;;5023909;28;20089;-86
2022/09/15 10:27:19;;;;;;;2.17;1.20;;;;;;;;;;5018105;28;20117;-89
2022/09/15 10:29:45;;;;;;;1.10;0.90;;;;;;;;;;5018117;28;20030;-87
2022/09/15 10:32:15;;;;;;;1.95;1.15;;;;;;;;;;5020171;28;20472;-88
2022/09/15 10:34:42;;;;;;;2.42;1.10;;;;;;;;;;5038830;28;20053;-87
2022/09/15 10:37:22;;;;;;;1.52;1.10;;;;;;;;;;5023489;28;20030;-86
2022/09/15 10:39:55;;;;;;;1.67;1.10;;;;;;;;;;5022996;28;20038;-87
2022/09/15 10:42:24;;;;;;;2.33;1.00;;;;;;;;;;5020771;28;20038;-86
2022/09/15 10:45:33;;;;;;;1.80;1.20;;;;;;;;;;5021777;28;20046;-87
2022/09/15 10:48:19;;;;;;;1.95;1.25;;;;;;;;;;4961462;29;20539;-87
2022/09/15 10:50:56;;;;;;;2.75;1.10;;;;;;;;;;5020641;28;20612;-87
2022/09/15 10:53:31;;;;;;;2.00;1.23;;;;;;;;;;5022961;28;20041;-87
2022/09/15 10:56:25;;;;;;;2.60;1.00;;;;;;;;;;5021218;28;20034;-86
2022/09/15 10:59:02;;;;;;;2.60;0.90;;;;;;;;;;5022015;28;20521;-87
2022/09/15 11:01:28;;;;;;;2.58;1.20;;;;;;;;;;5037542;28;20417;-87
2022/09/15 11:04:09;;;;;;;3.00;1.10;;;;;;;;;;5021936;28;20034;-86
2022/09/15 11:06:41;;;;;;;4.25;1.17;;;;;;;;;;5021398;28;20063;-85
2022/09/15 11:09:13;;;;;;;3.03;1.30;;;;;;;;;;5021371;28;20073;-86
2022/09/15 11:11:54;;;;;;;3.00;1.10;;;;;;;;;;5020569;28;20030;-86
2022/09/15 11:14:41;;;;;;;3.78;1.10;;;;;;;;;;5022298;28;20037;-86
2022/09/15 11:17:22;;;;;;;3.00;1.33;;;;;;;;;;5038322;28;20037;-87
2022/09/15 11:20:09;;;;;;;1.40;1.08;;;;;;;;;;5023126;28;20093;-89
2022/09/15 11:22:41;;;;;;;4.13;1.20;;;;;;;;;;5024175;28;20026;-86
2022/09/15 11:25:21;;;;;;;4.65;1.30;;;;;;;;;;5022767;28;20030;-87
2022/09/15 11:28:05;;;;;;;2.60;1.30;;;;;;;;;;5023028;28;20042;-87
2022/09/15 11:30:36;;;;;;;3.75;1.23;;;;;;;;;;5022158;28;20034;-88
2022/09/15 11:33:27;;;;;;;2.70;1.17;;;;;;;;;;5022405;28;20037;-86
2022/09/15 11:36:23;;;;;;;2.35;1.35;;;;;;;;;;5020932;28;20038;-86
2022/09/15 11:38:58;;;;;;;4.05;1.10;;;;;;;;;;5023000;28;20046;-86
2022/09/15 11:41:23;;;;;;;1.77;1.20;;;;;;;;;;5022558;28;20045;-87
2022/09/15 11:44:33;;;;;;;3.83;1.33;;;;;;;;;;5024357;28;20033;-85
2022/09/15 11:47:25;;;;;;;1.90;1.15;;;;;;;;;;5007555;28;20050;-86
2022/09/15 11:50:02;;;;;;;2.30;1.15;;;;;;;;;;5025202;28;20048;-87
2022/09/15 11:52:51;;;;;;;7.10;1.60;;;;;;;;;;5041109;28;20061;-86
2022/09/15 11:55:30;;;;;;;1.63;1.10;;;;;;;;;;5025319;28;20041;-86
2022/09/15 11:58:17;;;;;;;3.05;1.10;;;;;;;;;;5023939;28;20483;-86
2022/09/15 12:00:52;;;;;;;2.58;1.10;;;;;;;;;;5024810;28;20045;-85
2022/09/15 12:03:49;;;;;;;3.90;1.10;;;;;;;;;;5023137;28;20042;-85
2022/09/15 12:06:21;;;;;;;1.23;0.90;;;;;;;;;;5019341;28;20037;-85
2022/09/15 12:08:55;;;;;;;1.77;1.00;;;;;;;;;;5021654;28;20073;-86
2022/09/15 12:11:24;;;;;;;1.80;1.00;;;;;;;;;;5035877;28;20065;-86
2022/09/15 12:13:51;;;;;;;2.00;1.00;;;;;;;;;;5021138;28;20037;-86
2022/09/15 12:16:17;;;;;;;2.28;0.98;;;;;;;;;;5021324;28;20065;-85
2022/09/15 12:18:47;;;;;;;1.48;0.93;;;;;;;;;;5037580;28;20383;-85
2022/09/15 12:21:21;;;;;;;1.95;0.90;;;;;;;;;;5025014;28;20037;-87
2022/09/15 12:23:54;;;;;;;2.10;0.90;;;;;;;;;;5022698;28;20052;-87
2022/09/15 12:26:25;;;;;;;1.60;0.90;;;;;;;;;;5020810;28;20068;-88
2022/09/15 12:28:56;;;;;;;3.17;0.90;;;;;;;;;;5019302;28;20041;-88
2022/09/15 12:31:24;;;;;;;3.15;1.20;;;;;;;;;;5018213;28;20030;-86
2022/09/15 12:34:23;;;;;;;2.28;0.85;;;;;;;;;;5018638;28;20029;-86
2022/09/15 12:36:52;;;;;;;1.30;0.90;;;;;;;;;;5018968;28;20455;-87
2022/09/15 12:39:20;;;;;;;2.72;1.10;;;;;;;;;;5019077;28;20403;-86
2022/09/15 12:42:04;;;;;;;1.30;0.80;;;;;;;;;;5016914;28;20061;-86
2022/09/15 12:44:47;;;;;;;;;;;;;;;;;;5018666;28;20049;-84
2022/09/15 12:47:40;;;;;;;;;;;;;;;;;;5018143;28;19921;-84
2022/09/15 12:50:14;;;;;;;2.60;0.90;;;;;;;;;;5016168;28;20366;-85
2022/09/15 12:52:48;;;;;;;1.08;0.88;;;;;;;;;;5018704;28;20038;-86
2022/09/15 12:55:23;;;;;;;3.05;0.80;;;;;;;;;;5017583;28;20422;-86
2022/09/15 12:57:55;;;;;;;1.00;0.90;;;;;;;;;;5033708;28;20037;-86
2022/09/15 13:00:36;;;;;;;1.58;1.00;;;;;;;;;;5018716;28;20044;-86
2022/09/15 13:03:04;;;;;;;1.30;0.82;;;;;;;;;;5019710;28;20130;-87
2022/09/15 13:05:42;;;;;;;1.38;0.80;;;;;;;;;;5014866;28;20033;-86
2022/09/15 13:08:32;;;;;;;1.33;0.90;;;;;;;;;;5015978;28;20513;-86
2022/09/15 13:11:07;;;;;;;1.13;0.88;;;;;;;;;;5015448;28;20060;-86
2022/09/15 13:13:42;;;;;;;4.63;1.00;;;;;;;;;;5015206;28;20088;-85
2022/09/15 13:16:15;;;;;;;1.30;0.80;;;;;;;;;;5016126;28;20121;-86
2022/09/15 13:18:43;;;;;;;1.50;0.80;;;;;;;;;;5015559;28;20156;-86
2022/09/15 13:21:13;;;;;;;1.30;0.80;;;;;;;;;;5016981;28;20038;-85
2022/09/15 13:23:42;;;;;;;1.67;0.82;;;;;;;;;;4999050;28;20510;-85
2022/09/15 13:26:14;;;;;;;2.85;0.95;;;;;;;;;;5018521;28;20030;-86
2022/09/15 13:28:45;;;;;;;2.30;0.82;;;;;;;;;;5019620;28;20040;-84
2022/09/15 13:31:33;;;;;;;2.85;0.90;;;;;;;;;;5018886;28;20042;-86
2022/09/15 13:34:20;;;;;;;1.67;0.80;;;;;;;;;;5018555;28;20038;-85
2022/09/15 13:37:06;;;;;;;1.98;0.73;;;;;;;;;;5020375;28;20041;-86
2022/09/15 13:40:00;;;;;;;1.10;0.82;;;;;;;;;;5035077;28;20096;-86
2022/09/15 13:42:59;;;;;;;1.48;0.70;;;;;;;;;;5019758;28;20033;-86
2022/09/15 13:45:33;;;;;;;1.92;0.82;;;;;;;;;;5018639;28;20041;-85
2022/09/15 13:48:17;;;;;;;1.33;0.70;;;;;;;;;;5021217;28;20033;-89
2022/09/15 13:51:08;;;;;;;2.92;0.82;;;;;;;;;;5021584;28;20045;-88
2022/09/15 13:53:46;;;;;;;1.88;0.90;;;;;;;;;;5025485;28;20056;-87
2022/09/15 13:56:40;;;;;;;2.95;0.80;;;;;;;;;;5025288;28;20113;-88
2022/09/15 13:59:11;;;;;;;1.15;0.80;;;;;;;;;;5024716;28;20106;-88
2022/09/15 14:01:40;;;;;;;2.00;0.70;;;;;;;;;;5025684;28;20033;-88
2022/09/15 14:04:11;;;;;;;1.50;0.80;;;;;;;;;;5025680;28;20033;-88
2022/09/15 14:06:39;;;;;;;1.77;0.95;;;;;;;;;;5039274;28;20061;-87
2022/09/15 14:09:14;;;;;;;1.00;0.77;;;;;;;;;;5023603;28;20042;-86
2022/09/15 14:11:41;;;;;;;1.48;0.70;;;;;;;;;;5022454;28;20116;-87
2022/09/15 14:14:25;;;;;;;0.95;0.75;;;;;;;;;;5020415;28;20025;-87
2022/09/15 14:16:51;;;;;;;2.03;0.80;;;;;;;;;;5021302;28;20034;-87
2022/09/15 14:19:30;;;;;;;2.53;1.10;;;;;;;;;;5022736;28;20038;-87
2022/09/15 14:21:55;;;;;;;2.67;0.73;;;;;;;;;;5022461;28;20037;-87
2022/09/15 14:24:28;;;;;;;2.40;0.80;;;;;;;;;;5019929;28;20048;-86
2022/09/15 14:26:56;;;;;;;1.60;0.80;;;;;;;;;;5019466;28;20029;-84
2022/09/15 14:29:25;;;;;;;0.95;0.70;;;;;;;;;;5018794;28;20483;-85
2022/09/15 14:31:52;;;;;;;0.65;0.57;;;;;;;;;;5032934;28;20030;-84
2022/09/15 14:34:23;;;;;;;2.50;0.85;;;;;;;;;;5016707;28;20045;-83
2022/09/15 14:37:13;;;;;;;1.35;0.90;;;;;;;;;;5017857;28;20076;-85
2022/09/15 14:39:39;;;;;;;2.63;0.75;;;;;;;;;;5018567;28;20093;-85
2022/09/15 14:42:18;;;;;;;2.30;1.02;;;;;;;;;;5018203;28;20061;-84
2022/09/15 14:44:43;;;;;;;1.15;0.70;;;;;;;;;;5018068;28;20126;-86
2022/09/15 14:47:17;;;;;;;2.30;0.80;;;;;;;;;;5019100;28;20080;-86
2022/09/15 14:49:42;;;;;;;;;;;;;;;;;;5019676;28;20037;-86
2022/09/15 14:52:32;;;;;;;0.73;0.70;;;;;;;;;;5021032;28;19920;-88
2022/09/15 14:55:03;;;;;;;3.97;0.80;;;;;;;;;;5019606;28;20044;-87
2022/09/15 14:57:32;;;;;;;2.25;0.70;;;;;;;;;;5019030;28;20045;-87
2022/09/15 15:00:03;;;;;;;0.90;0.77;;;;;;;;;;5019618;28;20037;-88
2022/09/15 15:02:47;;;;;;;1.08;0.80;;;;;;;;;;5020237;28;20561;-87
2022/09/15 15:05:27;;;;;;;0.88;0.68;;;;;;;;;;5019829;28;20044;-87
2022/09/15 15:07:54;;;;;;;1.73;0.70;;;;;;;;;;5021322;28;20057;-87
2022/09/15 15:10:30;;;;;;;1.42;0.65;;;;;;;;;;5020270;28;20025;-86
2022/09/15 15:13:00;;;;;;;1.92;0.75;;;;;;;;;;5021359;28;20483;-86
2022/09/15 15:15:26;;;;;;;2.40;0.80;;;;;;;;;;5021665;28;20049;-86
2022/09/15 15:17:55;;;;;;;1.35;0.80;;;;;;;;;;5022381;28;20032;-86